ΕΜΥ, Εθνική Μετεωρολογική Υπηρεσία - Δελτία Καιρού, Προγνώσεις

ΑΕΡΟΝΑΥΤΙΛΙΑ

GREEK AIRPORTS CODES

LGML 041200Z 31007KT CAVOK 16/05 Q1022=

EUROPEAN AIRPORTS CODES

LFPO 041300Z 27009KT 9999 SCT020 BKN070 11/07 Q1021 NOSIG=